Time;durP1;ratioP1;P1;durP2;ratioP2;P2;SDS_P1;SDS_P2;PMS_P1;PMS_P2;Temp;Humidity;BMP_temperature;BMP_pressure;BME280_temperature;BME280_humidity;BME280_pressure;Samples;Min_cycle;Max_cycle;Signal;HPM_P1;HPM_P2
2021/04/19 00:00:07;;;;;;;8.70;7.90;;;10.10;99.90;;;;;;5043826;28;20493;-81
2021/04/19 00:02:34;;;;;;;11.70;8.53;;;10.10;99.90;;;;;;5049721;28;20458;-82
2021/04/19 00:05:04;;;;;;;9.73;8.30;;;10.10;99.90;;;;;;5044322;28;20512;-82
2021/04/19 00:07:32;;;;;;;8.93;7.57;;;10.10;99.90;;;;;;5042009;28;21382;-82
2021/04/19 00:09:59;;;;;;;11.57;8.10;;;10.10;99.90;;;;;;5042113;28;20450;-80
2021/04/19 00:12:27;;;;;;;11.90;7.53;;;10.10;99.90;;;;;;5044349;28;20485;-80
2021/04/19 00:14:55;;;;;;;8.90;8.00;;;10.20;99.90;;;;;;5048141;28;20479;-81
2021/04/19 00:17:22;;;;;;;10.03;8.10;;;10.30;99.90;;;;;;5044301;28;21240;-81
2021/04/19 00:19:49;;;;;;;10.20;7.97;;;10.10;99.90;;;;;;5038756;28;20693;-78
2021/04/19 00:22:16;;;;;;;12.30;8.60;;;10.10;99.90;;;;;;5042367;28;20447;-82
2021/04/19 00:24:43;;;;;;;10.37;8.63;;;10.10;99.90;;;;;;5046876;28;20495;-81
2021/04/19 00:27:11;;;;;;;9.37;8.47;;;10.10;99.90;;;;;;5040745;28;20999;-79
2021/04/19 00:29:38;;;;;;;9.87;7.57;;;10.20;99.90;;;;;;5058197;28;20464;-84
2021/04/19 00:32:07;;;;;;;9.83;7.93;;;10.20;99.90;;;;;;5063299;28;20475;-79
2021/04/19 00:34:34;;;;;;;12.80;7.67;;;10.30;99.90;;;;;;5062223;28;20498;-82
2021/04/19 00:37:01;;;;;;;9.53;8.50;;;10.30;99.90;;;;;;5051368;28;20473;-82
2021/04/19 00:39:30;;;;;;;11.70;8.70;;;10.20;99.90;;;;;;5063095;28;20508;-81
2021/04/19 00:41:58;;;;;;;10.70;8.37;;;10.20;99.90;;;;;;5052221;28;20470;-82
2021/04/19 00:44:25;;;;;;;11.37;8.20;;;10.20;99.90;;;;;;5049093;28;20488;-82
2021/04/19 00:46:52;;;;;;;10.27;9.20;;;10.00;99.90;;;;;;5060070;28;20464;-82
2021/04/19 00:49:23;;;;;;;12.13;8.40;;;10.00;99.90;;;;;;5060841;28;20560;-80
2021/04/19 00:51:50;;;;;;;8.13;7.30;;;10.00;99.90;;;;;;5046549;28;20478;-83
2021/04/19 00:54:18;;;;;;;9.53;8.30;;;10.10;99.90;;;;;;5044906;28;20485;-82
2021/04/19 00:56:47;;;;;;;10.27;8.47;;;10.10;99.90;;;;;;5053090;28;20512;-82
2021/04/19 00:59:15;;;;;;;12.30;9.40;;;10.10;99.90;;;;;;5057123;28;20462;-80
2021/04/19 01:01:42;;;;;;;10.40;7.93;;;10.10;99.90;;;;;;5053462;28;20475;-83
2021/04/19 01:04:10;;;;;;;9.27;7.83;;;10.10;99.90;;;;;;5050929;28;20492;-81
2021/04/19 01:06:38;;;;;;;9.80;7.27;;;10.10;99.90;;;;;;5059663;28;20853;-82
2021/04/19 01:09:07;;;;;;;9.80;8.03;;;10.10;99.90;;;;;;5059025;28;20973;-81
2021/04/19 01:11:34;;;;;;;10.20;8.63;;;10.10;99.90;;;;;;5061446;28;20479;-82
2021/04/19 01:14:01;;;;;;;11.60;8.27;;;10.30;99.90;;;;;;5046820;28;20565;-80
2021/04/19 01:16:30;;;;;;;10.10;8.00;;;10.00;99.90;;;;;;5051722;28;20473;-79
2021/04/19 01:18:57;;;;;;;11.40;8.50;;;10.00;99.90;;;;;;5064156;28;20996;-82
2021/04/19 01:21:25;;;;;;;8.77;7.43;;;10.00;99.90;;;;;;5051897;28;20510;-82
2021/04/19 01:23:53;;;;;;;17.53;15.67;;;9.90;99.90;;;;;;5048759;28;20482;-80
2021/04/19 01:26:20;;;;;;;11.47;9.60;;;10.00;99.90;;;;;;5048047;28;20470;-84
2021/04/19 01:28:50;;;;;;;9.43;7.60;;;9.90;99.90;;;;;;5056311;28;20464;-79
2021/04/19 01:31:18;;;;;;;13.20;8.67;;;9.70;99.90;;;;;;5053536;28;21257;-79
2021/04/19 01:33:45;;;;;;;10.00;9.00;;;9.70;99.90;;;;;;5038935;28;20498;-82
2021/04/19 01:36:13;;;;;;;15.60;8.40;;;9.60;99.90;;;;;;5052282;28;20473;-80
2021/04/19 01:38:41;;;;;;;13.37;9.53;;;9.60;99.90;;;;;;5059640;28;20459;-82
2021/04/19 01:41:08;;;;;;;10.47;8.00;;;9.70;99.90;;;;;;5053862;28;20470;-79
2021/04/19 01:43:36;;;;;;;13.20;9.40;;;9.50;99.90;;;;;;5052290;28;20471;-80
2021/04/19 01:46:03;;;;;;;9.60;8.60;;;9.60;99.90;;;;;;5053195;28;21101;-79
2021/04/19 01:48:30;;;;;;;10.30;7.80;;;9.50;99.90;;;;;;5057578;28;20447;-79
2021/04/19 01:50:57;;;;;;;11.63;8.20;;;9.50;99.90;;;;;;5051219;28;20480;-82
2021/04/19 01:53:24;;;;;;;9.60;8.00;;;9.50;99.90;;;;;;5042830;28;20915;-81
2021/04/19 01:55:53;;;;;;;10.57;9.47;;;9.60;99.90;;;;;;5043290;28;20527;-81
2021/04/19 01:58:22;;;;;;;11.77;8.80;;;9.60;99.90;;;;;;5047400;28;20468;-80
2021/04/19 02:00:53;;;;;;;10.77;9.10;;;9.60;99.90;;;;;;5054605;28;20560;-81
2021/04/19 02:03:42;;;;;;;10.47;8.30;;;9.60;99.90;;;;;;5043210;28;20475;-82
2021/04/19 02:06:15;;;;;;;10.33;8.07;;;9.80;99.90;;;;;;5053664;28;20462;-82
2021/04/19 02:08:52;;;;;;;10.17;8.40;;;9.70;99.90;;;;;;5055390;28;20491;-82
2021/04/19 02:11:29;;;;;;;13.00;9.97;;;9.80;99.90;;;;;;5052855;28;20458;-82
2021/04/19 02:14:01;;;;;;;9.90;8.90;;;9.60;99.90;;;;;;5053028;28;20488;-81
2021/04/19 02:16:38;;;;;;;12.03;9.17;;;9.60;99.90;;;;;;5053780;28;20872;-80
2021/04/19 02:19:14;;;;;;;11.00;7.97;;;9.70;99.90;;;;;;5061678;28;20486;-84
2021/04/19 02:21:46;;;;;;;10.40;8.40;;;9.60;99.90;;;;;;5050204;28;20501;-81
2021/04/19 02:24:17;;;;;;;11.23;8.50;;;9.60;99.90;;;;;;5041271;28;20544;-80
2021/04/19 02:26:49;;;;;;;11.37;8.57;;;9.70;99.90;;;;;;5049946;28;20461;-81
2021/04/19 02:29:22;;;;;;;11.43;9.30;;;9.70;99.90;;;;;;5056231;28;20474;-79
2021/04/19 02:31:55;;;;;;;12.87;9.60;;;9.70;99.90;;;;;;5052153;28;20457;-80
2021/04/19 02:34:27;;;;;;;12.37;8.80;;;9.70;99.90;;;;;;5050803;28;20471;-82
2021/04/19 02:36:56;;;;;;;12.53;9.47;;;9.70;99.90;;;;;;5054833;28;20468;-79
2021/04/19 02:39:25;;;;;;;11.87;9.47;;;9.70;99.90;;;;;;5046494;28;20496;-79
2021/04/19 02:41:55;;;;;;;14.87;11.90;;;9.50;99.90;;;;;;5052632;28;21350;-81
2021/04/19 02:44:23;;;;;;;11.03;9.80;;;9.60;99.90;;;;;;5046625;28;20520;-81
2021/04/19 02:46:53;;;;;;;13.20;9.80;;;9.70;99.90;;;;;;5051144;28;20552;-79
2021/04/19 02:49:22;;;;;;;12.23;9.47;;;9.80;99.90;;;;;;5054002;28;20871;-80
2021/04/19 02:51:51;;;;;;;11.90;9.93;;;9.40;99.90;;;;;;5054810;28;20456;-81
2021/04/19 02:54:21;;;;;;;13.20;10.70;;;9.60;99.90;;;;;;5041916;28;20501;-80
2021/04/19 02:56:50;;;;;;;14.83;10.60;;;9.60;99.90;;;;;;5043146;28;20467;-81
2021/04/19 02:59:21;;;;;;;12.40;11.10;;;9.80;99.90;;;;;;5048827;28;20471;-80
2021/04/19 03:01:52;;;;;;;14.43;10.70;;;9.60;99.90;;;;;;5044742;28;20458;-80
2021/04/19 03:04:25;;;;;;;15.60;10.47;;;9.60;99.90;;;;;;5054275;28;20483;-81
2021/04/19 03:06:55;;;;;;;14.73;10.23;;;9.60;99.90;;;;;;5054930;28;20459;-82
2021/04/19 03:09:24;;;;;;;18.10;13.40;;;9.60;99.90;;;;;;5051979;28;20664;-80
2021/04/19 03:11:55;;;;;;;16.00;11.90;;;9.70;99.90;;;;;;5053679;28;20451;-81
2021/04/19 03:14:27;;;;;;;17.13;12.40;;;9.60;99.90;;;;;;5049353;28;20486;-81
2021/04/19 03:17:00;;;;;;;16.90;11.63;;;9.70;99.90;;;;;;5060184;28;20461;-79
2021/04/19 03:19:31;;;;;;;15.60;10.80;;;9.80;99.90;;;;;;5048045;28;20485;-79
2021/04/19 03:22:00;;;;;;;13.17;11.30;;;9.80;99.90;;;;;;5047321;28;20581;-80
2021/04/19 03:24:28;;;;;;;13.20;9.60;;;9.80;99.90;;;;;;5045809;28;20484;-80
2021/04/19 03:26:56;;;;;;;16.03;11.20;;;10.10;99.90;;;;;;5047578;28;20465;-77
2021/04/19 03:29:26;;;;;;;19.00;11.83;;;9.90;99.90;;;;;;5047742;28;21220;-79
2021/04/19 03:31:56;;;;;;;16.43;12.47;;;9.80;99.90;;;;;;5049397;28;20459;-79
2021/04/19 03:34:27;;;;;;;17.07;11.53;;;9.80;99.90;;;;;;5045207;28;20576;-79
2021/04/19 03:36:59;;;;;;;16.40;10.37;;;9.80;99.90;;;;;;5055450;28;21031;-79
2021/04/19 03:39:26;;;;;;;12.33;10.90;;;9.80;99.90;;;;;;5056578;28;20466;-80
2021/04/19 03:41:56;;;;;;;17.13;12.60;;;9.80;99.90;;;;;;5052284;28;21055;-81
2021/04/19 03:44:27;;;;;;;12.30;9.63;;;9.80;99.90;;;;;;5053573;28;20487;-81
2021/04/19 03:46:57;;;;;;;14.53;10.50;;;9.80;99.90;;;;;;5060559;28;20470;-80
2021/04/19 03:49:28;;;;;;;13.10;10.73;;;9.70;99.90;;;;;;5061809;28;20459;-82
2021/04/19 03:51:58;;;;;;;16.60;10.60;;;9.70;99.90;;;;;;5052972;28;20468;-81
2021/04/19 03:54:30;;;;;;;13.17;10.23;;;9.70;99.90;;;;;;5048003;28;20487;-82
2021/04/19 03:56:58;;;;;;;11.83;10.27;;;9.70;99.90;;;;;;5054044;28;20451;-82
2021/04/19 03:59:27;;;;;;;13.00;9.10;;;9.70;99.90;;;;;;5068044;28;20817;-81
2021/04/19 04:01:56;;;;;;;14.30;10.90;;;9.60;99.90;;;;;;5056777;28;20473;-80
2021/04/19 04:04:24;;;;;;;10.80;9.20;;;9.60;99.90;;;;;;5059448;28;20473;-83
2021/04/19 04:06:51;;;;;;;13.67;10.07;;;9.50;99.90;;;;;;5058480;28;20832;-81
2021/04/19 04:09:19;;;;;;;11.40;10.20;;;9.40;99.90;;;;;;5053567;28;20471;-82
2021/04/19 04:11:46;;;;;;;15.73;10.63;;;9.50;99.90;;;;;;5049791;28;20512;-82
2021/04/19 04:14:14;;;;;;;9.97;8.97;;;9.30;99.90;;;;;;5056408;28;20511;-81
2021/04/19 04:16:43;;;;;;;12.00;10.57;;;9.30;99.90;;;;;;5053847;28;20458;-83
2021/04/19 04:19:11;;;;;;;17.13;10.83;;;9.40;99.90;;;;;;5060284;28;20456;-81
2021/04/19 04:21:39;;;;;;;17.07;11.73;;;9.50;99.90;;;;;;5048372;28;20487;-79
2021/04/19 04:24:07;;;;;;;11.73;10.10;;;9.50;99.90;;;;;;5040528;28;20491;-80
2021/04/19 04:26:35;;;;;;;16.53;11.80;;;9.50;99.90;;;;;;5042342;28;20468;-82
2021/04/19 04:29:02;;;;;;;15.63;11.27;;;9.60;99.90;;;;;;5055408;28;20459;-81
2021/04/19 04:31:30;;;;;;;10.83;9.80;;;9.50;99.90;;;;;;5054167;28;20464;-81
2021/04/19 04:33:58;;;;;;;12.77;10.70;;;9.40;99.90;;;;;;5053680;28;20467;-81
2021/04/19 04:36:25;;;;;;;11.40;9.87;;;9.40;99.90;;;;;;5055896;28;20499;-79
2021/04/19 04:38:52;;;;;;;12.20;10.30;;;9.50;99.90;;;;;;5049912;28;20494;-80
2021/04/19 04:41:19;;;;;;;15.97;10.20;;;9.50;99.90;;;;;;5051589;28;20473;-77
2021/04/19 04:43:51;;;;;;;15.70;11.10;;;9.50;99.90;;;;;;5051194;28;20471;-80
2021/04/19 04:46:24;;;;;;;15.93;11.20;;;9.40;99.90;;;;;;5061281;28;20513;-80
2021/04/19 04:48:58;;;;;;;16.17;11.37;;;9.40;99.90;;;;;;5049395;28;20471;-79
2021/04/19 04:51:29;;;;;;;14.50;10.87;;;9.40;99.90;;;;;;5046312;28;20459;-79
2021/04/19 04:54:01;;;;;;;17.33;10.67;;;9.40;99.90;;;;;;5052695;28;20493;-84
2021/04/19 04:56:33;;;;;;;16.33;10.20;;;9.40;99.90;;;;;;5052925;28;21083;-83
2021/04/19 04:59:01;;;;;;;13.07;10.30;;;9.40;99.90;;;;;;5048885;28;21003;-80
2021/04/19 05:01:29;;;;;;;16.80;11.40;;;9.40;99.90;;;;;;5050991;28;20461;-80
2021/04/19 05:03:57;;;;;;;15.77;11.67;;;9.50;99.90;;;;;;5048675;28;20487;-83
2021/04/19 05:06:26;;;;;;;17.17;11.10;;;9.40;99.90;;;;;;5058411;28;20456;-82
2021/04/19 05:08:54;;;;;;;12.50;10.87;;;9.40;99.90;;;;;;5052308;28;20474;-81
2021/04/19 05:11:22;;;;;;;14.30;9.90;;;9.30;99.90;;;;;;5053939;28;20466;-83
2021/04/19 05:13:49;;;;;;;13.37;11.20;;;9.40;99.90;;;;;;5059850;28;20510;-82
2021/04/19 05:16:24;;;;;;;16.90;12.00;;;9.40;99.90;;;;;;5055304;28;20467;-82
2021/04/19 05:18:52;;;;;;;19.33;10.90;;;9.50;99.90;;;;;;5070668;28;20463;-84
2021/04/19 05:21:20;;;;;;;12.90;11.20;;;9.50;99.90;;;;;;5049077;28;21213;-81
2021/04/19 05:23:48;;;;;;;15.37;10.80;;;9.50;99.90;;;;;;5047107;28;20491;-80
2021/04/19 05:26:15;;;;;;;13.03;9.83;;;9.40;99.90;;;;;;5052729;28;20452;-81
2021/04/19 05:28:43;;;;;;;15.93;11.60;;;9.50;99.90;;;;;;5053819;28;20485;-81
2021/04/19 05:31:11;;;;;;;15.17;10.80;;;9.40;99.90;;;;;;5063697;28;20461;-81
2021/04/19 05:33:39;;;;;;;13.50;10.57;;;9.40;99.90;;;;;;5056814;28;20493;-82
2021/04/19 05:36:08;;;;;;;13.23;10.80;;;9.70;99.90;;;;;;5050228;28;20569;-84
2021/04/19 05:38:36;;;;;;;15.50;11.20;;;9.40;99.90;;;;;;5056626;28;20474;-84
2021/04/19 05:41:05;;;;;;;14.20;11.37;;;9.40;99.90;;;;;;5048869;28;20469;-81
2021/04/19 05:43:34;;;;;;;14.60;11.40;;;9.40;99.90;;;;;;5045110;28;20485;-82
2021/04/19 05:46:02;;;;;;;19.13;12.47;;;9.70;1.00;;;;;;5052407;28;20470;-78
2021/04/19 05:48:29;;;;;;;19.37;12.37;;;9.40;99.90;;;;;;5054016;28;20466;-78
2021/04/19 05:50:59;;;;;;;15.47;11.30;;;9.40;99.90;;;;;;5048350;28;20503;-75
2021/04/19 05:53:27;;;;;;;14.30;11.40;;;9.30;1.00;;;;;;5044465;28;20498;-80
2021/04/19 05:55:55;;;;;;;17.03;11.90;;;9.40;99.90;;;;;;5050134;28;20475;-78
2021/04/19 05:58:29;;;;;;;13.23;10.63;;;9.40;1.00;;;;;;5046572;28;21005;-80
2021/04/19 06:01:04;;;;;;;14.40;11.83;;;9.10;1.00;;;;;;5049590;28;20476;-79
2021/04/19 06:03:40;;;;;;;15.53;12.50;;;9.20;1.00;;;;;;5047141;28;20484;-78
2021/04/19 06:06:16;;;;;;;19.97;13.33;;;9.30;1.00;;;;;;5052120;28;20477;-80
2021/04/19 06:08:54;;;;;;;16.13;12.03;;;9.60;1.00;;;;;;5051860;28;20738;-81
2021/04/19 06:11:27;;;;;;;15.90;10.53;;;9.40;1.00;;;;;;5048472;28;20463;-80
2021/04/19 06:13:56;;;;;;;14.13;10.23;;;9.50;1.00;;;;;;5044865;28;20566;-78
2021/04/19 06:16:25;;;;;;;17.10;12.80;;;9.40;1.00;;;;;;5051206;28;20491;-78
2021/04/19 06:18:54;;;;;;;16.63;11.33;;;9.40;1.00;;;;;;5051251;28;20459;-79
2021/04/19 06:21:22;;;;;;;12.30;9.97;;;9.40;1.00;;;;;;5051035;28;20466;-78
2021/04/19 06:23:49;;;;;;;13.60;11.70;;;9.40;1.00;;;;;;5051420;28;20475;-79
2021/04/19 06:26:17;;;;;;;18.93;11.70;;;9.60;1.00;;;;;;5057212;28;20467;-78
2021/04/19 06:28:49;;;;;;;16.40;12.33;;;9.50;1.00;;;;;;5048479;28;20897;-78
2021/04/19 06:31:22;;;;;;;14.90;12.03;;;9.50;1.00;;;;;;5048270;28;20966;-78
2021/04/19 06:34:06;;;;;;;14.87;11.93;;;9.50;1.00;;;;;;5043481;28;20584;-79
2021/04/19 06:36:34;;;;;;;19.03;12.93;;;9.40;28.60;;;;;;5040462;28;20528;-79
2021/04/19 06:39:03;;;;;;;15.63;11.73;;;9.40;99.90;;;;;;5046801;28;20465;-78
2021/04/19 06:41:31;;;;;;;16.23;11.63;;;9.30;99.90;;;;;;5041588;28;20472;-79
2021/04/19 06:44:00;;;;;;;14.97;11.63;;;9.30;99.90;;;;;;5040497;28;20848;-79
2021/04/19 06:46:32;;;;;;;15.60;11.70;;;9.20;99.90;;;;;;5044361;28;20478;-79
2021/04/19 06:48:59;;;;;;;15.23;11.73;;;9.20;99.90;;;;;;5041598;28;20460;-79
2021/04/19 06:51:27;;;;;;;15.03;12.47;;;9.20;99.90;;;;;;5048468;28;20471;-80
2021/04/19 06:53:55;;;;;;;14.50;11.50;;;9.20;99.90;;;;;;5049854;28;21068;-79
2021/04/19 06:56:25;;;;;;;13.90;10.63;;;9.30;99.90;;;;;;5045375;28;20586;-77
2021/04/19 06:58:53;;;;;;;15.53;11.20;;;9.40;99.90;;;;;;5048001;28;20455;-79
2021/04/19 07:01:21;;;;;;;17.10;11.97;;;9.40;5.10;;;;;;5044784;28;20961;-77
2021/04/19 07:03:55;;;;;;;17.00;12.60;;;9.50;48.70;;;;;;5051234;28;20988;-78
2021/04/19 07:06:27;;;;;;;12.83;11.37;;;9.40;1.00;;;;;;5046152;28;20466;-77
2021/04/19 07:09:03;;;;;;;18.20;13.73;;;9.30;41.60;;;;;;5048970;28;21090;-78
2021/04/19 07:11:35;;;;;;;14.20;11.70;;;9.30;44.30;;;;;;5043964;28;20465;-77
2021/04/19 07:14:05;;;;;;;16.00;12.20;;;9.10;99.90;;;;;;5046529;28;20557;-79
2021/04/19 07:16:33;;;;;;;15.50;11.87;;;9.10;99.90;;;;;;5047307;28;20521;-79
2021/04/19 07:19:05;;;;;;;17.17;12.13;;;9.10;99.90;;;;;;5051169;28;20458;-77
2021/04/19 07:21:33;;;;;;;14.37;11.50;;;9.10;99.90;;;;;;5047377;28;20482;-79
2021/04/19 07:24:02;;;;;;;18.53;11.60;;;9.00;1.00;;;;;;5046860;28;20757;-78
2021/04/19 07:26:29;;;;;;;16.00;11.47;;;9.20;1.00;;;;;;5044566;28;20559;-79
2021/04/19 07:28:57;;;;;;;17.40;11.93;;;9.10;99.90;;;;;;5046623;28;20460;-80
2021/04/19 07:31:24;;;;;;;12.60;9.80;;;9.20;99.90;;;;;;5044907;28;20464;-78
2021/04/19 07:33:54;;;;;;;16.13;11.10;;;9.20;99.90;;;;;;5046252;28;20488;-79
2021/04/19 07:36:24;;;;;;;10.40;9.30;;;9.20;1.00;;;;;;5055587;28;20466;-78
2021/04/19 07:38:53;;;;;;;14.03;11.93;;;9.10;99.90;;;;;;5046934;28;21485;-80
2021/04/19 07:41:21;;;;;;;15.07;10.60;;;9.00;1.00;;;;;;5052262;28;20463;-78
2021/04/19 07:43:49;;;;;;;14.10;12.20;;;8.80;1.00;;;;;;5055330;28;20853;-80
2021/04/19 07:46:18;;;;;;;16.60;11.10;;;8.80;1.00;;;;;;5051918;28;21022;-80
2021/04/19 07:48:47;;;;;;;12.33;10.13;;;8.80;28.60;;;;;;5055311;28;20445;-80
2021/04/19 07:51:27;;;;;;;15.87;12.47;;;9.00;1.00;;;;;;5059540;28;20494;-80
2021/04/19 07:54:18;;;;;;;18.17;12.50;;;9.00;1.00;;;;;;5060381;28;20894;-78
2021/04/19 07:56:47;;;;;;;15.63;10.40;;;9.00;1.00;;;;;;5050784;28;20462;-80
2021/04/19 07:59:21;;;;;;;14.50;11.43;;;9.10;1.00;;;;;;5057614;28;20461;-79
2021/04/19 08:01:58;;;;;;;13.70;10.83;;;9.00;1.00;;;;;;5049753;28;20464;-80
2021/04/19 08:04:26;;;;;;;15.50;11.30;;;8.90;99.90;;;;;;5049674;28;20486;-82
2021/04/19 08:06:55;;;;;;;16.17;11.60;;;8.90;25.90;;;;;;5053685;28;20472;-77
2021/04/19 08:09:23;;;;;;;14.40;12.23;;;8.70;99.90;;;;;;5046850;28;21321;-80
2021/04/19 08:11:57;;;;;;;15.57;11.50;;;8.70;99.90;;;;;;5050027;28;20557;-78
2021/04/19 08:14:28;;;;;;;16.57;11.50;;;8.90;99.90;;;;;;5049173;28;20491;-81
2021/04/19 08:17:06;;;;;;;18.43;11.40;;;9.00;99.90;;;;;;5055318;28;20523;-80
2021/04/19 08:19:34;;;;;;;15.60;10.90;;;9.10;99.90;;;;;;5051211;28;20459;-80
2021/04/19 08:22:15;;;;;;;16.73;12.33;;;9.20;1.00;;;;;;5049905;28;21055;-80
2021/04/19 08:24:42;;;;;;;13.03;11.57;;;9.40;1.00;;;;;;5053265;28;20489;-82
2021/04/19 08:27:18;;;;;;;15.70;13.00;;;9.30;1.00;;;;;;5050708;28;20479;-80
2021/04/19 08:29:47;;;;;;;16.50;11.80;;;9.30;12.70;;;;;;5047850;28;21036;-79
2021/04/19 08:32:17;;;;;;;17.10;12.70;;;9.40;1.00;;;;;;5054898;28;20459;-79
2021/04/19 08:34:47;;;;;;;13.13;10.83;;;9.30;25.20;;;;;;5052036;28;20588;-79
2021/04/19 08:37:18;;;;;;;14.80;10.43;;;9.40;88.60;;;;;;5053693;28;20471;-81
2021/04/19 08:39:46;;;;;;;15.07;11.93;;;9.20;99.90;;;;;;5056878;28;20520;-82
2021/04/19 08:42:21;;;;;;;13.77;11.33;;;9.40;58.40;;;;;;5060847;28;20471;-81
2021/04/19 08:44:51;;;;;;;20.00;13.60;;;9.70;99.90;;;;;;5047033;28;20503;-80
2021/04/19 08:47:20;;;;;;;18.27;12.10;;;9.40;1.00;;;;;;5050307;28;20458;-81
2021/04/19 08:49:49;;;;;;;17.93;11.80;;;9.40;99.90;;;;;;5047228;28;20458;-78
2021/04/19 08:52:17;;;;;;;13.57;11.60;;;9.30;1.00;;;;;;5045636;28;20564;-80
2021/04/19 08:54:45;;;;;;;16.47;11.83;;;9.20;89.90;;;;;;5047283;28;20490;-80
2021/04/19 08:57:12;;;;;;;16.63;12.47;;;9.10;99.90;;;;;;5043038;28;20883;-79
2021/04/19 08:59:43;;;;;;;14.43;11.47;;;9.10;99.90;;;;;;5046262;28;20477;-82
2021/04/19 09:02:11;;;;;;;15.80;11.50;;;9.10;99.90;;;;;;5047836;28;21308;-80
2021/04/19 09:04:39;;;;;;;14.60;12.10;;;9.10;1.00;;;;;;5048244;28;20494;-78
2021/04/19 09:07:08;;;;;;;14.17;11.80;;;9.20;99.90;;;;;;5065014;28;20479;-79
2021/04/19 09:09:39;;;;;;;21.37;12.60;;;9.00;99.90;;;;;;5047402;28;20552;-77
2021/04/19 09:12:28;;;;;;;18.63;12.50;;;9.10;1.00;;;;;;5044957;28;20828;-79
2021/04/19 09:15:16;;;;;;;20.53;12.77;;;9.30;1.00;;;;;;5063291;28;20502;-82
2021/04/19 09:18:00;;;;;;;14.90;12.07;;;9.30;99.90;;;;;;5050536;28;20466;-80
2021/04/19 09:20:33;;;;;;;14.93;11.57;;;9.00;99.90;;;;;;5045847;28;20524;-78
2021/04/19 09:23:21;;;;;;;17.93;13.50;;;8.70;12.80;;;;;;5054031;28;21010;-80
2021/04/19 09:25:50;;;;;;;16.83;11.80;;;8.80;39.30;;;;;;5051900;28;20475;-81
2021/04/19 09:28:56;;;;;;;17.27;12.30;;;9.20;99.90;;;;;;5059417;28;20469;-80
2021/04/19 09:31:59;;;;;;;20.57;13.53;;;9.10;99.90;;;;;;5069271;28;20464;-81
2021/04/19 09:34:45;;;;;;;21.90;14.07;;;8.90;1.00;;;;;;5050939;28;20494;-79
2021/04/19 09:37:14;;;;;;;15.40;13.03;;;8.90;99.90;;;;;;5047540;28;20486;-77
2021/04/19 09:40:05;;;;;;;15.77;12.47;;;8.90;1.00;;;;;;5047240;28;20462;-80
2021/04/19 09:43:04;;;;;;;17.83;13.50;;;9.20;30.80;;;;;;5046228;28;20467;-78
2021/04/19 09:45:53;;;;;;;15.10;11.97;;;9.20;1.00;;;;;;5060088;28;20469;-78
2021/04/19 09:48:56;;;;;;;14.83;12.63;;;9.10;1.00;;;;;;5047433;28;21220;-79
2021/04/19 09:51:25;;;;;;;21.03;13.73;;;9.20;99.90;;;;;;5049512;28;20468;-80
2021/04/19 09:53:56;;;;;;;16.30;12.57;;;9.30;96.10;;;;;;5048719;28;20511;-79
2021/04/19 09:56:24;;;;;;;19.10;13.60;;;9.40;1.00;;;;;;5053755;28;20864;-79
2021/04/19 09:58:53;;;;;;;20.27;13.17;;;9.20;1.00;;;;;;5044511;28;20618;-80
2021/04/19 10:01:22;;;;;;;16.67;13.47;;;9.20;99.90;;;;;;5045280;28;20458;-80
2021/04/19 10:03:51;;;;;;;16.20;12.53;;;9.30;1.00;;;;;;5054212;28;20506;-80
2021/04/19 10:06:23;;;;;;;21.17;14.13;;;9.40;1.00;;;;;;5058989;28;20460;-80
2021/04/19 10:08:51;;;;;;;17.20;12.90;;;9.40;1.00;;;;;;5047649;28;20825;-82
2021/04/19 10:11:23;;;;;;;25.10;14.23;;;9.40;1.00;;;;;;5043989;28;20469;-79
2021/04/19 10:13:53;;;;;;;18.73;13.00;;;9.60;1.00;;;;;;5047447;28;21022;-82
2021/04/19 10:16:21;;;;;;;21.90;15.80;;;9.60;1.00;;;;;;5051401;28;20461;-81
2021/04/19 10:18:51;;;;;;;22.40;13.67;;;9.60;99.90;;;;;;5052884;28;21344;-79
2021/04/19 10:21:28;;;;;;;17.73;13.77;;;9.70;99.90;;;;;;5048969;28;20476;-81
2021/04/19 10:23:56;;;;;;;25.33;15.20;;;9.70;1.00;;;;;;5051913;28;20503;-80
2021/04/19 10:26:31;;;;;;;21.37;14.60;;;9.90;23.90;;;;;;5044787;28;20490;-80
2021/04/19 10:29:08;;;;;;;21.17;16.23;;;9.90;70.50;;;;;;5052264;28;20483;-79
2021/04/19 10:31:35;;;;;;;20.87;15.23;;;9.80;99.90;;;;;;5069421;28;20231;-86
2021/04/19 10:34:11;;;;;;;20.80;13.90;;;10.00;99.90;;;;;;5047018;28;20579;-81
2021/04/19 10:36:44;;;;;;;19.17;13.43;;;10.00;1.00;;;;;;5052792;28;20468;-84
2021/04/19 10:39:14;;;;;;;23.33;13.30;;;10.00;1.00;;;;;;5047886;28;20457;-82
2021/04/19 10:41:42;;;;;;;17.53;12.23;;;10.10;1.00;;;;;;5052214;28;20456;-83
2021/04/19 10:44:10;;;;;;;18.37;13.90;;;10.10;1.00;;;;;;5055497;28;20701;-79
2021/04/19 10:46:39;;;;;;;15.30;12.27;;;10.10;99.90;;;;;;5049464;28;20461;-82
2021/04/19 10:49:09;;;;;;;15.73;12.20;;;10.10;1.00;;;;;;5056919;28;20985;-83
2021/04/19 10:51:38;;;;;;;18.93;12.83;;;10.10;1.00;;;;;;5055471;28;20922;-80
2021/04/19 10:54:07;;;;;;;18.70;13.70;;;10.00;1.00;;;;;;5053906;28;20906;-79
2021/04/19 10:56:39;;;;;;;22.57;12.47;;;9.80;1.00;;;;;;5055338;28;20465;-79
2021/04/19 10:59:07;;;;;;;19.70;13.53;;;9.80;99.90;;;;;;5052040;28;20461;-80
2021/04/19 11:01:37;;;;;;;15.87;12.03;;;9.70;1.00;;;;;;5048440;28;20461;-80
2021/04/19 11:04:07;;;;;;;18.90;14.27;;;9.80;1.00;;;;;;5049292;28;20482;-78
2021/04/19 11:06:35;;;;;;;18.83;14.00;;;9.90;1.00;;;;;;5053698;28;20556;-78
2021/04/19 11:09:06;;;;;;;16.93;11.57;;;10.00;1.00;;;;;;5046780;28;20468;-78
2021/04/19 11:11:40;;;;;;;14.43;12.30;;;10.00;1.00;;;;;;5040680;28;20479;-79
2021/04/19 11:14:16;;;;;;;15.60;12.47;;;10.10;99.90;;;;;;5051396;28;20491;-79
2021/04/19 11:16:56;;;;;;;11.90;10.70;;;10.20;99.90;;;;;;5042713;28;20479;-77
2021/04/19 11:19:40;;;;;;;16.80;11.97;;;10.10;99.90;;;;;;5047058;28;20470;-78
2021/04/19 11:22:22;;;;;;;14.10;11.60;;;10.40;99.90;;;;;;5039173;28;20467;-77
2021/04/19 11:25:15;;;;;;;14.97;11.13;;;10.00;99.90;;;;;;5050662;28;20544;-79
2021/04/19 11:27:43;;;;;;;13.50;10.83;;;9.90;1.00;;;;;;5052242;28;20462;-81
2021/04/19 11:30:18;;;;;;;14.50;11.00;;;10.00;1.00;;;;;;5060628;28;20839;-82
2021/04/19 11:32:47;;;;;;;14.00;10.80;;;10.00;1.00;;;;;;5044672;28;20544;-80
2021/04/19 11:35:24;;;;;;;16.77;12.47;;;9.90;1.00;;;;;;5055665;28;20496;-81
2021/04/19 11:37:59;;;;;;;15.97;11.93;;;10.00;1.00;;;;;;5053317;28;20844;-81
2021/04/19 11:40:28;;;;;;;13.00;10.70;;;10.10;1.00;;;;;;5044086;28;20582;-84
2021/04/19 11:42:56;;;;;;;16.10;11.37;;;10.20;99.90;;;;;;5053066;28;20551;-82
2021/04/19 11:45:26;;;;;;;13.93;10.60;;;10.20;99.90;;;;;;5050765;28;20497;-80
2021/04/19 11:47:54;;;;;;;13.93;11.20;;;10.30;99.90;;;;;;5046026;28;20468;-80
2021/04/19 11:50:25;;;;;;;14.67;11.50;;;10.30;99.90;;;;;;5056734;28;20463;-80
2021/04/19 11:52:52;;;;;;;16.37;12.17;;;10.20;99.90;;;;;;5048055;28;20467;-79
2021/04/19 11:55:20;;;;;;;16.40;11.43;;;10.00;1.00;;;;;;5052753;28;20487;-80
2021/04/19 11:57:47;;;;;;;14.07;11.40;;;10.10;1.00;;;;;;5051143;28;21391;-81
2021/04/19 12:00:16;;;;;;;16.47;12.03;;;10.10;99.90;;;;;;5046025;28;20905;-79
2021/04/19 12:02:43;;;;;;;14.77;11.53;;;9.80;1.00;;;;;;5051258;28;21833;-78
2021/04/19 12:05:13;;;;;;;14.77;12.30;;;9.90;1.00;;;;;;5047317;28;20513;-77
2021/04/19 12:07:40;;;;;;;16.10;11.73;;;10.00;1.00;;;;;;5049243;28;21100;-78
2021/04/19 12:10:09;;;;;;;16.00;11.87;;;9.90;1.00;;;;;;5047646;28;20474;-79
2021/04/19 12:12:36;;;;;;;16.90;11.60;;;9.90;1.00;;;;;;5044129;28;20466;-80
2021/04/19 12:15:04;;;;;;;14.93;11.67;;;10.00;1.00;;;;;;5048040;28;20496;-78
2021/04/19 12:17:32;;;;;;;14.70;11.30;;;9.90;99.90;;;;;;5050161;28;20483;-79
2021/04/19 12:19:59;;;;;;;12.80;10.67;;;10.00;99.90;;;;;;5047796;28;20480;-79
2021/04/19 12:22:27;;;;;;;14.23;10.60;;;10.10;1.00;;;;;;5052059;28;20518;-78
2021/04/19 12:24:55;;;;;;;16.07;13.23;;;10.20;1.00;;;;;;5051405;28;20486;-79
2021/04/19 12:27:22;;;;;;;14.73;11.53;;;10.10;1.00;;;;;;5044428;28;21029;-79
2021/04/19 12:29:49;;;;;;;15.97;11.33;;;10.10;1.00;;;;;;5049788;28;20460;-80
2021/04/19 12:32:17;;;;;;;19.53;13.60;;;10.20;1.00;;;;;;5054239;28;20499;-78
2021/04/19 12:34:44;;;;;;;15.73;11.73;;;10.40;99.90;;;;;;5053441;28;20479;-78
2021/04/19 12:37:11;;;;;;;16.90;13.50;;;10.50;99.90;;;;;;5050154;28;20610;-79
2021/04/19 12:39:40;;;;;;;17.67;11.77;;;10.60;99.90;;;;;;5046867;28;21021;-81
2021/04/19 12:42:07;;;;;;;17.67;12.63;;;10.40;99.90;;;;;;5055477;28;20496;-81
2021/04/19 12:44:35;;;;;;;17.63;11.57;;;10.40;99.90;;;;;;5046676;28;20479;-80
2021/04/19 12:47:02;;;;;;;16.10;12.50;;;10.40;99.90;;;;;;5051259;28;20469;-81
2021/04/19 12:49:30;;;;;;;18.57;12.77;;;10.50;99.90;;;;;;5054815;28;20467;-78
2021/04/19 12:51:57;;;;;;;14.73;12.10;;;10.40;99.90;;;;;;5044606;28;20456;-76
2021/04/19 12:54:24;;;;;;;16.87;12.33;;;10.40;99.90;;;;;;5046606;28;20485;-79
2021/04/19 12:56:52;;;;;;;17.27;11.70;;;10.50;99.90;;;;;;5052027;28;20447;-79